Time;durP1;ratioP1;P1;durP2;ratioP2;P2;SDS_P1;SDS_P2;PMS_P1;PMS_P2;Temp;Humidity;BMP_temperature;BMP_pressure;BME280_temperature;BME280_humidity;BME280_pressure;Samples;Min_cycle;Max_cycle;Signal;HPM_P1;HPM_P2
2022/05/23 00:01:15;;;;;;;;;;;22.80;85.50;;;;;;5093446;28;19948;-89
2022/05/23 00:03:40;;;;;;;;;;;22.60;85.70;;;;;;5093606;28;19962;-90
2022/05/23 00:06:06;;;;;;;;;;;22.60;86.10;;;;;;5092750;28;19980;-90
2022/05/23 00:08:32;;;;;;;;;;;22.60;86.20;;;;;;5093256;28;19949;-90
2022/05/23 00:10:58;;;;;;;;;;;22.60;86.30;;;;;;5093165;28;19949;-89
2022/05/23 00:13:23;;;;;;;;;;;22.60;86.50;;;;;;5093201;28;19942;-90
2022/05/23 00:15:49;;;;;;;;;;;22.50;86.70;;;;;;5093170;28;19936;-90
2022/05/23 00:18:15;;;;;;;;;;;22.50;86.60;;;;;;5093431;28;19995;-90
2022/05/23 00:20:41;;;;;;;;;;;22.50;86.70;;;;;;5093160;28;20041;-90
2022/05/23 00:23:07;;;;;;;;;;;22.60;86.70;;;;;;5093353;28;20007;-89
2022/05/23 00:25:32;;;;;;;;;;;22.60;86.40;;;;;;5093006;28;20012;-89
2022/05/23 00:27:58;;;;;;;;;;;22.60;86.30;;;;;;5093320;28;19953;-90
2022/05/23 00:30:25;;;;;;;;;;;22.50;86.40;;;;;;5093055;28;20419;-90
2022/05/23 00:35:35;;;;;;;;;;;22.50;86.70;;;;;;5092843;28;19953;-90
2022/05/23 00:38:01;;;;;;;;;;;22.50;86.80;;;;;;5092981;28;19950;-90
2022/05/23 00:40:29;;;;;;;;;;;22.50;87.10;;;;;;5092924;28;19959;-90
2022/05/23 00:43:14;;;;;;;;;;;22.50;87.10;;;;;;5092945;28;20033;-90
2022/05/23 00:45:47;;;;;;;;;;;22.40;87.30;;;;;;5092855;28;20340;-90
2022/05/23 00:48:14;;;;;;;;;;;22.40;87.60;;;;;;5092916;28;19943;-89
2022/05/23 00:50:41;;;;;;;;;;;22.40;87.50;;;;;;5092924;28;19944;-90
2022/05/23 00:53:07;;;;;;;;;;;22.40;87.30;;;;;;5092759;28;19966;-90
2022/05/23 00:55:41;;;;;;;;;;;22.30;87.30;;;;;;5092800;28;19935;-90
2022/05/23 00:58:18;;;;;;;;;;;22.30;87.70;;;;;;5092788;28;20324;-90
2022/05/23 01:00:44;;;;;;;;;;;22.30;87.90;;;;;;5092834;28;19943;-91
2022/05/23 01:03:11;;;;;;;;;;;22.30;87.70;;;;;;5092758;28;19936;-89
2022/05/23 01:05:37;;;;;;;;;;;22.30;87.90;;;;;;5091926;28;19985;-90
2022/05/23 01:08:03;;;;;;;;;;;22.30;87.90;;;;;;5092303;28;19944;-90
2022/05/23 01:10:31;;;;;;;;;;;22.20;88.00;;;;;;5092643;28;19950;-90
2022/05/23 01:12:56;;;;;;;;;;;22.20;87.90;;;;;;5093097;28;20037;-89
2022/05/23 01:15:26;;;;;;;;;;;22.30;87.80;;;;;;5096380;28;19984;-90
2022/05/23 01:17:52;;;;;;;;;;;22.20;87.60;;;;;;5096324;28;19949;-90
2022/05/23 01:20:18;;;;;;;;;;;22.20;87.70;;;;;;5096614;28;19945;-90
2022/05/23 01:22:47;;;;;;;;;;;22.20;87.80;;;;;;5096198;28;20024;-90
2022/05/23 01:25:15;;;;;;;;;;;22.10;87.70;;;;;;5096191;28;20099;-90
2022/05/23 01:27:41;;;;;;;;;;;22.10;87.80;;;;;;5096089;28;19943;-90
2022/05/23 01:30:07;;;;;;;;;;;22.20;87.90;;;;;;5096095;28;19943;-90
2022/05/23 01:32:33;;;;;;;;;;;22.10;87.90;;;;;;5095905;28;19935;-90
2022/05/23 01:34:58;;;;;;;;;;;22.10;88.10;;;;;;5095862;28;20398;-90
2022/05/23 01:37:24;;;;;;;;;;;22.10;88.10;;;;;;5096004;28;19945;-90
2022/05/23 01:39:49;;;;;;;;;;;22.10;88.10;;;;;;5095942;28;20039;-90
2022/05/23 01:42:15;;;;;;;;;;;22.10;88.30;;;;;;5095905;28;20036;-90
2022/05/23 01:44:41;;;;;;;;;;;22.10;88.20;;;;;;5095245;28;19942;-90
2022/05/23 01:47:08;;;;;;;;;;;22.10;88.10;;;;;;5095682;28;19969;-90
2022/05/23 01:49:33;;;;;;;;;;;22.10;88.10;;;;;;5095667;28;19962;-89
2022/05/23 01:51:59;;;;;;;;;;;22.10;88.10;;;;;;5095636;28;19938;-90
2022/05/23 01:54:24;;;;;;;;;;;22.10;88.20;;;;;;5095640;28;19946;-90
2022/05/23 01:56:50;;;;;;;;;;;22.00;88.20;;;;;;5095588;28;19943;-90
2022/05/23 02:02:00;;;;;;;;;;;22.00;88.20;;;;;;5095351;28;20326;-90
2022/05/23 02:04:27;;;;;;;;;;;22.10;88.30;;;;;;5095448;28;19940;-90
2022/05/23 02:06:53;;;;;;;;;;;22.10;88.40;;;;;;5095084;28;19978;-90
2022/05/23 02:09:26;;;;;;;;;;;22.10;88.30;;;;;;5095307;28;20078;-90
2022/05/23 02:11:52;;;;;;;;;;;22.10;88.30;;;;;;5095637;28;19941;-90
2022/05/23 02:14:17;;;;;;;;;;;22.10;88.10;;;;;;5095560;28;20043;-90
2022/05/23 02:16:43;;;;;;;;;;;22.20;88.00;;;;;;5095212;28;19972;-90
2022/05/23 02:19:08;;;;;;;;;;;22.20;87.60;;;;;;5095125;28;19934;-90
2022/05/23 02:21:34;;;;;;;;;;;22.30;87.30;;;;;;5095109;28;20322;-89
2022/05/23 02:24:03;;;;;;;;;;;22.30;87.10;;;;;;5094958;28;19952;-90
2022/05/23 02:26:29;;;;;;;;;;;22.30;87.00;;;;;;5094944;28;20522;-90
2022/05/23 02:28:55;;;;;;;;;;;22.30;86.80;;;;;;5095224;28;19950;-90
2022/05/23 02:31:21;;;;;;;;;;;22.30;86.70;;;;;;5094685;28;20287;-90
2022/05/23 02:33:46;;;;;;;;;;;22.30;86.70;;;;;;5094782;28;20363;-90
2022/05/23 02:36:12;;;;;;;;;;;22.30;86.70;;;;;;5094800;28;19975;-90
2022/05/23 02:38:37;;;;;;;;;;;22.30;86.70;;;;;;5094684;28;20025;-90
2022/05/23 02:41:03;;;;;;;;;;;22.20;86.70;;;;;;5094709;28;19937;-90
2022/05/23 02:43:30;;;;;;;;;;;22.20;86.70;;;;;;5094668;28;19976;-90
2022/05/23 02:45:56;;;;;;;;;;;22.10;87.00;;;;;;5094563;28;19961;-90
2022/05/23 02:48:21;;;;;;;;;;;22.10;87.20;;;;;;5094598;28;20007;-90
2022/05/23 02:50:47;;;;;;;;;;;22.00;87.40;;;;;;5094533;28;19948;-90
2022/05/23 02:53:13;;;;;;;;;;;22.00;87.50;;;;;;5094514;28;20409;-91
2022/05/23 02:55:38;;;;;;;;;;;22.00;87.60;;;;;;5094409;28;20039;-90
2022/05/23 02:58:04;;;;;;;;;;;21.90;87.70;;;;;;5094439;28;20033;-89
2022/05/23 03:00:29;;;;;;;;;;;21.90;87.80;;;;;;5094219;28;19951;-91
2022/05/23 03:03:04;;;;;;;;;;;21.90;87.80;;;;;;5094283;28;19946;-90
2022/05/23 03:05:48;;;;;;;;;;;21.90;87.70;;;;;;5094022;28;19972;-91
2022/05/23 03:08:15;;;;;;;;;;;21.90;87.60;;;;;;5094219;28;19944;-90
2022/05/23 03:10:41;;;;;;;;;;;21.90;87.40;;;;;;5094201;28;19963;-90
2022/05/23 03:13:07;;;;;;;;;;;21.80;87.10;;;;;;5094146;28;20377;-90
2022/05/23 03:15:33;;;;;;;;;;;21.90;86.60;;;;;;5094162;28;19948;-91
2022/05/23 03:17:59;;;;;;;;;;;21.90;86.20;;;;;;5094109;28;20389;-90
2022/05/23 03:20:25;;;;;;;;;;;21.90;85.80;;;;;;5094017;28;20132;-90
2022/05/23 03:28:22;;;;;;;;;;;22.00;86.10;;;;;;5093876;28;19998;-90
2022/05/23 03:30:47;;;;;;;;;;;22.00;86.20;;;;;;5093533;28;19946;-90
2022/05/23 03:33:13;;;;;;;;;;;22.00;86.10;;;;;;5093690;28;20034;-89
2022/05/23 03:35:39;;;;;;;;;;;22.00;86.00;;;;;;5093595;28;19938;-90
2022/05/23 03:38:05;;;;;;;;;;;22.00;85.90;;;;;;5093322;28;19949;-90
2022/05/23 03:40:32;;;;;;;;;;;22.00;86.00;;;;;;5093648;28;19942;-90
2022/05/23 03:42:58;;;;;;;;;;;22.00;86.10;;;;;;5093628;28;19996;-90
2022/05/23 03:45:23;;;;;;;;;;;21.90;86.00;;;;;;5093767;28;19942;-89
2022/05/23 03:47:50;;;;;;;;;;;21.90;85.70;;;;;;5093562;28;19943;-90
2022/05/23 03:50:15;;;;;;;;;;;21.90;85.80;;;;;;5093499;28;19945;-90
2022/05/23 03:52:41;;;;;;;;;;;21.80;85.90;;;;;;5093065;28;19935;-89
2022/05/23 03:55:07;;;;;;;;;;;21.90;86.10;;;;;;5093413;28;20403;-90
2022/05/23 03:57:32;;;;;;;;;;;21.80;86.10;;;;;;5093008;28;19950;-90
2022/05/23 03:59:59;;;;;;;;;;;21.90;85.80;;;;;;5092523;28;20041;-89
2022/05/23 04:02:25;;;;;;;;;;;21.90;86.20;;;;;;5092245;28;19949;-89
2022/05/23 04:04:51;;;;;;;;;;;21.90;86.50;;;;;;5099383;22;19960;-90
2022/05/23 04:07:17;;;;;;;;;;;22.00;87.00;;;;;;5052952;28;20340;-90
2022/05/23 04:09:42;;;;;;;;;;;21.90;87.10;;;;;;5052958;28;20414;-90
2022/05/23 04:12:08;;;;;;;;;;;21.90;87.20;;;;;;5052967;28;19944;-90
2022/05/23 04:14:33;;;;;;;;;;;21.80;87.10;;;;;;5052956;28;19949;-89
2022/05/23 04:16:59;;;;;;;;;;;21.90;87.30;;;;;;5052951;28;19943;-89
2022/05/23 04:19:25;;;;;;;;;;;21.80;87.10;;;;;;5053005;28;20007;-90
2022/05/23 04:21:51;;;;;;;;;;;21.80;87.20;;;;;;5052906;28;19942;-90
2022/05/23 04:24:17;;;;;;;;;;;21.90;86.30;;;;;;5052862;28;19959;-89
2022/05/23 04:26:43;;;;;;;;;;;22.00;86.10;;;;;;5053069;28;19966;-90
2022/05/23 04:29:09;;;;;;;;;;;22.10;86.00;;;;;;5052812;28;20319;-90
2022/05/23 04:31:35;;;;;;;;;;;22.10;86.10;;;;;;5052763;28;19986;-90
2022/05/23 04:36:56;;;;;;;;;;;22.20;85.70;;;;;;4981410;28;20045;-90
2022/05/23 04:39:22;;;;;;;;;;;22.20;85.40;;;;;;5052775;28;19945;-89
2022/05/23 04:41:47;;;;;;;;;;;22.30;85.30;;;;;;5052770;28;19946;-89
2022/05/23 04:44:13;;;;;;;;;;;22.30;85.00;;;;;;5052999;28;20397;-90
2022/05/23 04:49:41;;;;;;;;;;;22.40;85.00;;;;;;5055449;28;20081;-90
2022/05/23 04:52:07;;;;;;;;;;;22.50;84.80;;;;;;5056268;28;19951;-90
2022/05/23 04:54:33;;;;;;;;;;;22.50;84.80;;;;;;5056411;28;19976;-90
2022/05/23 04:56:59;;;;;;;;;;;22.50;85.10;;;;;;5056441;28;19989;-90
2022/05/23 04:59:24;;;;;;;;;;;22.50;84.60;;;;;;5055855;28;20422;-90
2022/05/23 05:01:50;;;;;;;;;;;22.50;84.00;;;;;;5054016;28;19955;-90
2022/05/23 05:04:16;;;;;;;;;;;22.60;84.30;;;;;;5055409;28;20402;-90
2022/05/23 05:06:42;;;;;;;;;;;22.60;84.40;;;;;;5055307;28;20077;-90
2022/05/23 05:09:07;;;;;;;;;;;22.70;83.90;;;;;;5055183;28;20392;-90
2022/05/23 05:11:33;;;;;;;;;;;22.70;84.00;;;;;;5055494;28;19937;-90
2022/05/23 05:13:58;;;;;;;;;;;22.80;84.20;;;;;;5055647;28;20038;-90
2022/05/23 05:16:24;;;;;;;;;;;22.80;84.30;;;;;;5055415;28;20029;-90
2022/05/23 05:18:50;;;;;;;;;;;22.80;84.10;;;;;;5055725;28;20052;-90
2022/05/23 05:21:15;;;;;;;;;;;22.90;84.00;;;;;;5055998;28;20314;-89
2022/05/23 05:23:41;;;;;;;;;;;22.90;84.00;;;;;;5055342;28;19961;-90
2022/05/23 05:26:06;;;;;;;;;;;22.80;83.90;;;;;;5055171;28;20010;-90
2022/05/23 05:28:32;;;;;;;;;;;22.80;83.80;;;;;;5055283;28;19992;-90
2022/05/23 05:31:14;;;;;;;;;;;22.80;83.90;;;;;;5053229;28;19950;-90
2022/05/23 05:33:42;;;;;;;;;;;22.80;83.80;;;;;;5053977;28;20041;-90
2022/05/23 05:36:11;;;;;;;;;;;22.90;83.70;;;;;;5054669;28;19968;-90
2022/05/23 05:38:43;;;;;;;;;;;22.90;83.30;;;;;;5054672;28;20002;-90
2022/05/23 05:41:11;;;;;;;;;;;23.00;83.30;;;;;;5036603;28;20322;-90
2022/05/23 05:43:38;;;;;;;;;;;23.00;83.10;;;;;;5054718;28;19944;-90
2022/05/23 05:46:08;;;;;;;;;;;23.00;83.00;;;;;;5054531;28;19969;-90
2022/05/23 05:48:40;;;;;;;;;;;23.10;82.90;;;;;;5054610;28;19953;-91
2022/05/23 05:51:06;;;;;;;;;;;23.20;82.50;;;;;;5054409;28;19989;-91
2022/05/23 05:53:32;;;;;;;;;;;23.20;82.40;;;;;;5054976;28;19985;-91
2022/05/23 05:56:02;;;;;;;;;;;23.20;82.10;;;;;;5054528;28;19974;-90
2022/05/23 05:58:28;;;;;;;;;;;23.20;81.70;;;;;;5054471;28;19938;-90
2022/05/23 06:00:54;;;;;;;;;;;23.30;81.20;;;;;;5054383;28;19990;-91
2022/05/23 06:03:19;;;;;;;;;;;23.30;81.00;;;;;;5054847;28;19951;-91
2022/05/23 06:11:29;;;;;;;;;;;23.40;80.10;;;;;;5043626;28;19993;-91
2022/05/23 06:13:58;;;;;;;;;;;23.40;80.20;;;;;;5054679;28;19948;-91
2022/05/23 06:16:25;;;;;;;;;;;23.40;80.40;;;;;;5035867;28;19947;-90
2022/05/23 06:18:50;;;;;;;;;;;23.50;80.20;;;;;;5053496;28;19943;-90
2022/05/23 06:21:16;;;;;;;;;;;23.60;79.80;;;;;;5053825;28;20466;-91
2022/05/23 06:23:42;;;;;;;;;;;23.60;79.70;;;;;;5053345;28;19963;-91
2022/05/23 06:26:08;;;;;;;;;;;23.60;79.20;;;;;;5053773;28;20415;-91
2022/05/23 06:28:37;;;;;;;;;;;23.60;78.90;;;;;;5053602;28;19953;-91
2022/05/23 06:31:02;;;;;;;;;;;23.70;78.50;;;;;;5035663;28;20313;-90
2022/05/23 06:33:28;;;;;;;;;;;23.80;78.50;;;;;;5053954;28;19944;-91
2022/05/23 06:35:54;;;;;;;;;;;23.90;78.40;;;;;;5053517;28;19953;-91
2022/05/23 06:38:20;;;;;;;;;;;24.00;77.70;;;;;;5053951;28;19947;-91
2022/05/23 06:40:50;;;;;;;;;;;24.20;76.80;;;;;;5053297;28;19942;-90
2022/05/23 06:43:16;;;;;;;;;;;24.20;76.70;;;;;;5054225;28;20263;-91
2022/05/23 06:45:41;;;;;;;;;;;24.30;76.40;;;;;;5053721;28;20291;-91
2022/05/23 06:48:08;;;;;;;;;;;24.30;75.60;;;;;;5054240;28;19948;-91
2022/05/23 06:50:33;;;;;;;;;;;24.30;75.60;;;;;;5035954;28;20429;-91
2022/05/23 06:52:59;;;;;;;;;;;24.30;75.70;;;;;;5053790;28;19956;-91
2022/05/23 06:55:25;;;;;;;;;;;24.30;75.90;;;;;;5052704;28;20255;-90
2022/05/23 06:57:50;;;;;;;;;;;24.30;75.70;;;;;;5053462;28;19951;-90
2022/05/23 07:00:17;;;;;;;;;;;24.30;76.00;;;;;;5052382;28;20029;-90
2022/05/23 07:02:43;;;;;;;;;;;24.30;75.60;;;;;;5054005;28;20000;-90
2022/05/23 07:13:20;;;;;;;;;;;24.70;74.50;;;;;;5047555;28;20412;-90
2022/05/23 07:15:49;;;;;;;;;;;24.90;72.70;;;;;;5049776;28;19945;-91
2022/05/23 07:18:15;;;;;;;;;;;25.00;73.40;;;;;;5064169;28;20035;-90
2022/05/23 07:20:41;;;;;;;;;;;25.00;73.00;;;;;;5048441;28;19959;-90
2022/05/23 07:23:07;;;;;;;;;;;25.20;72.70;;;;;;5051544;28;19964;-90
2022/05/23 07:25:32;;;;;;;;;;;25.30;71.40;;;;;;5052914;28;20002;-91
2022/05/23 07:27:58;;;;;;;;;;;25.30;71.40;;;;;;5047076;28;19941;-91
2022/05/23 07:30:23;;;;;;;;;;;25.40;71.30;;;;;;5059905;28;19992;-90
2022/05/23 07:32:49;;;;;;;;;;;25.50;71.40;;;;;;5053340;28;19968;-91
2022/05/23 07:35:16;;;;;;;;;;;25.60;70.80;;;;;;5051774;28;20017;-90
2022/05/23 07:37:41;;;;;;;;;;;25.70;70.30;;;;;;5051147;28;19957;-90
2022/05/23 07:40:07;;;;;;;;;;;25.80;70.40;;;;;;5052885;28;19954;-90
2022/05/23 07:42:33;;;;;;;;;;;25.80;70.00;;;;;;5048214;28;19948;-90
2022/05/23 07:44:59;;;;;;;;;;;25.90;69.90;;;;;;5053394;28;19951;-91
2022/05/23 07:47:24;;;;;;;;;;;26.00;69.20;;;;;;5050590;28;19958;-90
2022/05/23 07:49:50;;;;;;;;;;;26.20;69.20;;;;;;5050851;28;20468;-91
2022/05/23 07:52:16;;;;;;;;;;;26.30;70.10;;;;;;5052628;28;19955;-91
2022/05/23 08:00:33;;;;;;;;;;;26.20;69.80;;;;;;4990335;28;19941;-90
2022/05/23 08:03:04;;;;;;;;;;;26.20;69.40;;;;;;5033709;28;19942;-91
2022/05/23 08:05:30;;;;;;;;;;;26.40;67.80;;;;;;5047286;28;19972;-91
2022/05/23 08:07:55;;;;;;;;;;;26.30;67.70;;;;;;5047574;28;20397;-90
2022/05/23 08:10:21;;;;;;;;;;;26.30;68.70;;;;;;5048133;28;19957;-91
2022/05/23 08:12:49;;;;;;;;;;;26.30;68.70;;;;;;5045913;28;19946;-91
2022/05/23 08:15:14;;;;;;;;;;;26.30;69.90;;;;;;5053598;28;19993;-90
2022/05/23 08:17:40;;;;;;;;;;;26.40;68.70;;;;;;5052418;28;20001;-90
2022/05/23 08:20:06;;;;;;;;;;;26.30;68.50;;;;;;5050369;28;20055;-90
2022/05/23 08:22:31;;;;;;;;;;;26.30;69.40;;;;;;5051139;28;20403;-91
2022/05/23 08:24:57;;;;;;;;;;;26.40;68.20;;;;;;5053761;28;20005;-90
2022/05/23 08:27:23;;;;;;;;;;;26.30;67.50;;;;;;5055408;28;19940;-90
2022/05/23 08:29:49;;;;;;;;;;;26.40;68.00;;;;;;5048911;28;19946;-91
2022/05/23 08:32:16;;;;;;;;;;;26.50;67.60;;;;;;5057452;28;19963;-91
2022/05/23 08:34:42;;;;;;;;;;;26.70;66.50;;;;;;5055763;28;19939;-91
2022/05/23 08:37:08;;;;;;;;;;;26.80;65.90;;;;;;5056916;28;19938;-91
2022/05/23 08:39:34;;;;;;;;;;;26.90;66.70;;;;;;5057130;28;20523;-91
2022/05/23 08:42:23;;;;;;;;;;;26.80;65.90;;;;;;5056965;28;19953;-91
2022/05/23 08:44:55;;;;;;;;;;;26.90;65.50;;;;;;5015079;28;19948;-91
2022/05/23 08:47:29;;;;;;;;;;;26.90;65.80;;;;;;5053796;28;20034;-91
2022/05/23 08:50:15;;;;;;;;;;;27.00;64.50;;;;;;5055028;28;19973;-90
2022/05/23 08:52:52;;;;;;;;;;;27.10;64.60;;;;;;5031319;28;19950;-90
2022/05/23 08:55:26;;;;;;;;;;;27.00;65.90;;;;;;5057794;28;19993;-91
2022/05/23 08:57:55;;;;;;;;;;;26.90;66.60;;;;;;5060230;28;19942;-91
2022/05/23 09:00:23;;;;;;;;;;;27.00;67.60;;;;;;5058132;28;20409;-91
2022/05/23 09:02:54;;;;;;;;;;;27.20;66.80;;;;;;5055855;28;19945;-91
2022/05/23 09:05:22;;;;;;;;;;;27.20;64.80;;;;;;5045572;28;19973;-91
2022/05/23 09:07:51;;;;;;;;;;;27.20;65.20;;;;;;5055580;28;19979;-91
2022/05/23 09:10:23;;;;;;;;;;;27.20;65.00;;;;;;5055760;28;19955;-91
2022/05/23 09:12:53;;;;;;;;;;;27.30;65.00;;;;;;5052352;28;19951;-90
2022/05/23 09:15:19;;;;;;;;;;;27.30;64.90;;;;;;5048419;28;19990;-90
2022/05/23 09:17:47;;;;;;;;;;;27.30;65.60;;;;;;5053835;28;20398;-90
2022/05/23 09:20:14;;;;;;;;;;;27.20;65.00;;;;;;5055470;28;19982;-91
2022/05/23 09:22:50;;;;;;;;;;;27.20;66.00;;;;;;5058176;28;19964;-90
2022/05/23 09:25:17;;;;;;;;;;;27.20;65.30;;;;;;5055870;28;19950;-90
2022/05/23 09:27:48;;;;;;;;;;;27.30;66.10;;;;;;5051812;28;20019;-91
2022/05/23 09:30:16;;;;;;;;;;;27.50;67.60;;;;;;5060490;28;19970;-90
2022/05/23 09:32:51;;;;;;;;;;;27.60;65.40;;;;;;5053045;28;20008;-91
2022/05/23 09:35:27;;;;;;;;;;;27.70;64.90;;;;;;5053392;28;19976;-91
2022/05/23 09:38:11;;;;;;;;;;;27.80;64.30;;;;;;5050418;28;20044;-91
2022/05/23 09:40:37;;;;;;;;;;;27.90;64.20;;;;;;5066103;28;19947;-91
2022/05/23 09:49:01;;;;;;;;;;;27.80;65.00;;;;;;5056838;28;19945;-91
2022/05/23 09:51:27;;;;;;;;;;;27.90;63.30;;;;;;5059848;28;19949;-90
2022/05/23 09:53:53;;;;;;;;;;;27.90;62.20;;;;;;5054885;28;19959;-90
2022/05/23 09:56:26;;;;;;;;;;;27.90;62.70;;;;;;5054439;28;20025;-91
2022/05/23 09:58:52;;;;;;;;;;;27.80;61.90;;;;;;5057278;28;20077;-90
2022/05/23 10:01:28;;;;;;;;;;;27.80;63.90;;;;;;5058784;28;19957;-91
2022/05/23 10:03:54;;;;;;;;;;;28.00;63.10;;;;;;5054083;28;19944;-91
2022/05/23 10:06:32;;;;;;;;;;;28.20;62.40;;;;;;5053156;28;19994;-90
2022/05/23 10:08:58;;;;;;;;;;;28.30;61.80;;;;;;5055098;28;20002;-90
2022/05/23 10:11:29;;;;;;;;;;;28.40;62.10;;;;;;5053931;28;19951;-91
2022/05/23 10:14:01;;;;;;;;;;;28.70;61.70;;;;;;5054241;28;19950;-90
2022/05/23 10:16:32;;;;;;;;;;;28.80;62.70;;;;;;5054719;28;19950;-91
2022/05/23 10:19:00;;;;;;;;;;;28.80;58.70;;;;;;5055064;28;19987;-91
2022/05/23 10:21:28;;;;;;;;;;;28.90;60.30;;;;;;5055000;28;19942;-91
2022/05/23 10:23:59;;;;;;;;;;;29.10;60.30;;;;;;5054919;28;19952;-91
2022/05/23 10:26:27;;;;;;;;;;;29.20;58.10;;;;;;5054892;28;20316;-91
2022/05/23 10:29:11;;;;;;;;;;;29.20;57.90;;;;;;5054725;28;19982;-91
2022/05/23 10:31:36;;;;;;;;;;;29.30;57.40;;;;;;5036932;28;19989;-90
2022/05/23 10:34:08;;;;;;;;;;;29.50;55.10;;;;;;5054660;28;20407;-91
2022/05/23 10:36:33;;;;;;;;;;;29.50;56.10;;;;;;5036845;28;20332;-90
2022/05/23 10:42:10;;;;;;;;;;;29.50;55.00;;;;;;5035046;28;19944;-91
2022/05/23 10:44:42;;;;;;;;;;;29.60;56.30;;;;;;5034578;28;19945;-91
2022/05/23 10:47:31;;;;;;;;;;;29.50;55.80;;;;;;5033547;28;19963;-91
2022/05/23 10:50:00;;;;;;;;;;;29.60;57.00;;;;;;5042194;28;20030;-91
2022/05/23 10:52:37;;;;;;;;;;;29.70;56.60;;;;;;5054709;28;19950;-91
2022/05/23 10:55:11;;;;;;;;;;;29.90;56.60;;;;;;5054477;28;20403;-91
2022/05/23 10:57:36;;;;;;;;;;;30.20;55.30;;;;;;5054398;28;19969;-91
2022/05/23 11:00:06;;;;;;;;;;;30.60;56.70;;;;;;5054121;28;19957;-91
2022/05/23 11:02:51;;;;;;;;;;;31.00;50.60;;;;;;5054272;28;19955;-91
2022/05/23 11:05:21;;;;;;;;;;;31.00;53.10;;;;;;5040781;28;20089;-91
2022/05/23 11:07:49;;;;;;;;;;;31.00;54.00;;;;;;5054102;28;19971;-91
2022/05/23 11:10:15;;;;;;;;;;;31.10;52.30;;;;;;5054062;28;19968;-90
2022/05/23 11:12:53;;;;;;;;;;;30.90;53.10;;;;;;5054050;28;20395;-91
2022/05/23 11:15:19;;;;;;;;;;;30.60;53.80;;;;;;5054099;28;19940;-91
2022/05/23 11:17:48;;;;;;;;;;;30.40;54.60;;;;;;5053696;28;20309;-90
2022/05/23 11:20:22;;;;;;;;;;;30.30;55.20;;;;;;5053662;28;19972;-91
2022/05/23 11:22:53;;;;;;;;;;;30.30;54.40;;;;;;5053812;28;20033;-91
2022/05/23 11:25:25;;;;;;;;;;;30.20;55.70;;;;;;5052967;28;20482;-90
2022/05/23 11:33:41;;;;;;;;;;;30.30;55.80;;;;;;5054738;28;20464;-90
2022/05/23 11:36:09;;;;;;;;;;;30.10;57.60;;;;;;5052203;28;20000;-91
2022/05/23 11:38:41;;;;;;;;;;;30.20;57.70;;;;;;5052811;28;19944;-91
2022/05/23 11:41:10;;;;;;;;;;;30.60;55.20;;;;;;5052856;28;19940;-91
2022/05/23 11:43:36;;;;;;;;;;;30.90;53.50;;;;;;5063879;28;19946;-91
2022/05/23 11:46:04;;;;;;;;;;;31.00;54.40;;;;;;5061224;28;19967;-90
2022/05/23 11:48:33;;;;;;;;;;;30.90;53.90;;;;;;5052369;28;19953;-91
2022/05/23 11:51:09;;;;;;;;;;;30.70;54.40;;;;;;5051030;28;19949;-91
2022/05/23 11:53:37;;;;;;;;;;;30.60;55.50;;;;;;5052627;28;20146;-91
2022/05/23 11:56:11;;;;;;;;;;;30.20;55.50;;;;;;5052680;28;19959;-90
2022/05/23 11:58:36;;;;;;;;;;;29.80;56.00;;;;;;5056524;28;19959;-90
2022/05/23 12:01:10;;;;;;;;;;;29.80;57.40;;;;;;5048552;28;19953;-90
2022/05/23 12:03:51;;;;;;;;;;;30.10;57.90;;;;;;5051016;28;20048;-91
2022/05/23 12:06:41;;;;;;;;;;;30.30;57.20;;;;;;5058421;23;20385;-91
2022/05/23 12:09:11;;;;;;;;;;;30.90;55.30;;;;;;5041293;28;20454;-91
2022/05/23 12:11:38;;;;;;;;;;;31.30;53.80;;;;;;5053216;28;20055;-91
2022/05/23 12:14:18;;;;;;;;;;;31.00;54.40;;;;;;5048129;28;19961;-91
2022/05/23 12:17:01;;;;;;;;;;;31.20;55.70;;;;;;5033847;28;20028;-90
2022/05/23 12:19:41;;;;;;;;;;;31.40;55.30;;;;;;5050585;28;19949;-90
2022/05/23 12:22:16;;;;;;;;;;;31.50;54.20;;;;;;5056166;28;19947;-91
2022/05/23 12:25:00;;;;;;;;;;;31.20;53.70;;;;;;5048733;28;20049;-91
2022/05/23 12:27:26;;;;;;;;;;;31.10;54.20;;;;;;5052083;28;19963;-91
2022/05/23 12:30:11;;;;;;;;;;;31.20;54.20;;;;;;5050504;28;19947;-91
2022/05/23 12:32:38;;;;;;;;;;;31.90;52.50;;;;;;5054510;28;19991;-90
2022/05/23 12:35:05;;;;;;;;;;;31.90;52.10;;;;;;5066506;28;19946;-90
2022/05/23 12:37:31;;;;;;;;;;;31.80;53.00;;;;;;5051936;28;19957;-91
2022/05/23 12:40:29;;;;;;;;;;;31.60;53.30;;;;;;5051499;28;19973;-90
2022/05/23 12:43:03;;;;;;;;;;;31.30;53.30;;;;;;5006347;28;19946;-90
2022/05/23 12:45:58;;;;;;;;;;;31.00;53.50;;;;;;5049259;28;19950;-91
2022/05/23 12:48:38;;;;;;;;;;;30.80;54.60;;;;;;4979092;28;19952;-91
2022/05/23 12:51:22;;;;;;;;;;;30.90;54.40;;;;;;5027100;28;19949;-91
2022/05/23 12:53:57;;;;;;;;;;;30.80;53.00;;;;;;5047833;28;20029;-90
2022/05/23 12:56:22;;;;;;;;;;;31.00;54.60;;;;;;5039293;28;19945;-90
2022/05/23 12:58:48;;;;;;;;;;;31.30;53.80;;;;;;5049511;28;19998;-90
2022/05/23 13:01:16;;;;;;;;;;;31.50;52.70;;;;;;5049200;28;19987;-91
2022/05/23 13:03:53;;;;;;;;;;;31.80;53.20;;;;;;5047046;28;20321;-91
2022/05/23 13:06:22;;;;;;;;;;;32.30;51.30;;;;;;5034626;28;19979;-90
2022/05/23 13:09:00;;;;;;;;;;;32.90;49.20;;;;;;5051444;28;19954;-90
2022/05/23 13:11:48;;;;;;;;;;;32.00;50.40;;;;;;5051992;28;20003;-91
2022/05/23 13:14:14;;;;;;;;;;;31.70;52.30;;;;;;5039129;28;19951;-91
2022/05/23 13:16:40;;;;;;;;;;;31.80;52.40;;;;;;5055134;28;19990;-90
2022/05/23 13:22:05;;;;;;;;;;;31.20;52.40;;;;;;5055014;28;20021;-90
2022/05/23 13:24:49;;;;;;;;;;;30.80;52.40;;;;;;5054329;28;20477;-90
2022/05/23 13:27:37;;;;;;;;;;;30.70;54.00;;;;;;5043897;28;20011;-91
2022/05/23 13:30:06;;;;;;;;;;;30.70;54.70;;;;;;5039922;28;20407;-91
2022/05/23 13:32:32;;;;;;;;;;;30.80;53.60;;;;;;5054768;28;20054;-91
2022/05/23 13:35:01;;;;;;;;;;;30.90;54.50;;;;;;5059872;28;20023;-90
2022/05/23 13:37:31;;;;;;;;;;;31.00;53.10;;;;;;5065365;28;19944;-91
2022/05/23 13:40:06;;;;;;;;;;;30.90;54.00;;;;;;5055452;28;19950;-91
2022/05/23 13:42:31;;;;;;;;;;;31.20;54.00;;;;;;5054790;28;19948;-91
2022/05/23 13:45:14;;;;;;;;;;;32.10;52.20;;;;;;5055764;28;19951;-91
2022/05/23 13:47:54;;;;;;;;;;;32.80;49.50;;;;;;5051838;28;19957;-91
2022/05/23 13:50:23;;;;;;;;;;;33.40;48.30;;;;;;5053000;28;19954;-90
2022/05/23 13:52:56;;;;;;;;;;;34.10;45.80;;;;;;5047889;28;19944;-91
2022/05/23 13:55:25;;;;;;;;;;;34.60;43.20;;;;;;5049002;28;19945;-91
2022/05/23 13:57:56;;;;;;;;;;;35.10;44.30;;;;;;5049285;28;19947;-91
2022/05/23 14:00:27;;;;;;;;;;;35.70;42.20;;;;;;5054225;28;19954;-91
2022/05/23 14:02:55;;;;;;;;;;;36.40;40.70;;;;;;5049097;28;20025;-91
2022/05/23 14:05:22;;;;;;;;;;;36.70;39.90;;;;;;5054026;28;20060;-92
2022/05/23 14:07:47;;;;;;;;;;;36.40;39.10;;;;;;5061787;28;19959;-91
2022/05/23 14:10:22;;;;;;;;;;;36.60;40.00;;;;;;5063197;28;19998;-91
2022/05/23 14:12:48;;;;;;;;;;;37.10;39.00;;;;;;5053792;28;20001;-91
2022/05/23 14:15:19;;;;;;;;;;;37.00;39.20;;;;;;5035150;28;20304;-91
2022/05/23 14:17:48;;;;;;;;;;;37.00;38.70;;;;;;5052495;28;20463;-92
2022/05/23 14:20:28;;;;;;;;;;;36.90;38.40;;;;;;5048193;28;19989;-91
2022/05/23 14:23:10;;;;;;;;;;;36.80;38.40;;;;;;5047563;28;19963;-91
2022/05/23 14:25:58;;;;;;;;;;;36.60;39.80;;;;;;5052922;28;19946;-91
2022/05/23 14:28:28;;;;;;;;;;;37.20;39.20;;;;;;5041267;28;19993;-92
2022/05/23 14:30:59;;;;;;;;;;;37.90;37.10;;;;;;5048870;28;20002;-92
2022/05/23 14:33:26;;;;;;;;;;;38.60;36.30;;;;;;5052498;28;19984;-92
2022/05/23 14:35:59;;;;;;;;;;;38.20;35.90;;;;;;5053246;28;19960;-91
2022/05/23 14:38:25;;;;;;;;;;;38.20;36.20;;;;;;5037014;28;19988;-92
2022/05/23 14:40:50;;;;;;;;;;;38.50;37.20;;;;;;5053580;28;19940;-91
2022/05/23 14:43:22;;;;;;;;;;;38.90;35.90;;;;;;5054117;28;20413;-92
2022/05/23 14:45:52;;;;;;;;;;;39.10;34.70;;;;;;5051263;28;19954;-91
2022/05/23 14:48:22;;;;;;;;;;;39.10;35.00;;;;;;5069256;28;19956;-91
2022/05/23 14:50:56;;;;;;;;;;;38.50;36.10;;;;;;5044647;28;19946;-91
2022/05/23 14:56:36;;;;;;;;;;;38.50;35.70;;;;;;5025510;28;19948;-91
2022/05/23 15:01:47;;;;;;;;;;;37.40;38.00;;;;;;5065033;28;20003;-91
2022/05/23 15:04:22;;;;;;;;;;;37.20;37.70;;;;;;5065526;28;20391;-91
2022/05/23 15:06:49;;;;;;;;;;;37.40;37.20;;;;;;5063702;28;19968;-91
2022/05/23 15:09:14;;;;;;;;;;;37.50;37.20;;;;;;5051974;28;19944;-91
2022/05/23 15:11:41;;;;;;;;;;;36.80;37.90;;;;;;5053286;28;19947;-92
2022/05/23 15:14:09;;;;;;;;;;;35.60;39.20;;;;;;5050075;28;20427;-92
2022/05/23 15:16:36;;;;;;;;;;;35.20;40.60;;;;;;5051957;28;19948;-91
2022/05/23 15:19:06;;;;;;;;;;;35.00;41.50;;;;;;5051153;28;19985;-91
2022/05/23 15:21:31;;;;;;;;;;;35.20;41.40;;;;;;5052124;28;19946;-91
2022/05/23 15:23:57;;;;;;;;;;;35.10;40.30;;;;;;5049144;28;19964;-90
2022/05/23 15:26:25;;;;;;;;;;;35.20;40.80;;;;;;5053133;28;19960;-90